• Join FlightAware (Why Join?)
  • Login
  • US Flag 
06:55PM EDT


 

Airport Tracker/Info


-or-


 

Live Flight TrackerFlight Track Log ✈ DAL6119 ✈ 09-May-2013 ✈ KSDF - KLGA

Flight Track Log - Related Links

Times and Time Zones

All times are in EDT time to prevent confusion due to time zone crossing. See the DAL6119 flight status page for this flight to view local times or setup timezone preferences in your user account.

Time Position Orientation Groundspeed Altitude Reporting Facility
EDT Latitude Longitude Course Direction KTS MPH feet Rate Location/Type
07:49PM 38.1097 -85.7044 96° East 191 220 3,000  Level Indianapolis Center
07:50PM 38.0814 -85.6339 117° Southeast 236 272 4,700 1,860 Climbing Indianapolis Center
07:51PM 38.0625 -85.2602 103° East  Level FlightAware Approximate
07:51PM 38.0822 -85.5356 89° East 267 307 6,900  Level Indianapolis Center
07:52PM 38.0383 -85.1275 103° East  Level FlightAware Approximate
07:52PM 38.0775 -85.4319 93° East 288 331 9,300  Level Indianapolis Center
07:53PM 38.0221 -84.9932 99° East  Level FlightAware Approximate
07:53PM 38.0719 -85.3258 94° East 298 343 11,400  Level Indianapolis Center
07:54PM 38.0094 -84.8619 96° East  Level FlightAware Approximate
07:54PM 38.0619 -85.2133 96° East 320 368 12,700  Level Indianapolis Center
07:55PM 38.0436 -85.0792 100° East 353 406 14,000 1,260 Climbing Indianapolis Center
07:56PM 38.0275 -84.9494 99° East 371 427 15,300 1,260 Climbing Indianapolis Center
07:57PM 38.0108 -84.8142 99° East 384 442 16,600 1,260 Climbing Indianapolis Center
07:58PM 37.9939 -84.6822 99° East 380 437 17,900 1,200 Climbing Indianapolis Center
07:59PM 37.9764 -84.5503 100° East 379 436 19,100 1,200 Climbing Indianapolis Center
08:00PM 37.9622 -84.3906 96° East 389 448 20,400 1,200 Climbing Indianapolis Center
08:01PM 37.9567 -84.2461 93° East 406 467 21,600 1,080 Climbing Indianapolis Center
08:02PM 37.9503 -84.1019 93° East 408 470 22,700 1,080 Climbing Indianapolis Center
08:03PM 37.9431 -83.9561 94° East 414 476 23,900 1,080 Climbing Indianapolis Center
08:04PM 37.9372 -83.8058 93° East 422 486 25,000 1,020 Climbing Indianapolis Center
08:05PM 37.9297 -83.6564 94° East 424 488 26,100 1,080 Climbing Indianapolis Center
08:06PM 37.9228 -83.5086 93° East 420 483 27,300 1,080 Climbing Indianapolis Center
08:07PM 37.9150 -83.3592 94° East 422 486 28,400 1,020 Climbing Indianapolis Center
08:08PM 37.9078 -83.2144 94° East 415 478 29,500 1,260 Climbing Indianapolis Center
08:09PM 37.8983 -83.0392 94° East 422 486 31,000 1,800 Climbing Indianapolis Center
08:10PM 37.8908 -82.8958 94° East 413 475 33,200 1,620 Climbing Indianapolis Center
08:11PM 37.8839 -82.7608 94° East 391 450 34,400 840 Climbing Indianapolis Center
08:12PM 37.8783 -82.6228 93° East 393 452 35,000 240 Climbing Indianapolis Center
08:13PM 37.8864 -82.4814 86° East 403 464 35,000  Level Indianapolis Center
08:14PM 37.8931 -82.3303 87° East 426 490 35,000  Level Indianapolis Center
08:15PM 37.9006 -82.1692 87° East 451 519 35,000  Level Indianapolis Center
08:16PM 37.9083 -81.9872 87° East 464 534 35,000  Level Indianapolis Center
08:17PM 37.9153 -81.8281 87° East 456 525 35,000  Level Indianapolis Center
08:18PM 37.9222 -81.6717 87° East 449 517 35,000  Level Indianapolis Center
08:19PM 37.9283 -81.5117 87° East 457 526 35,000  Level Indianapolis Center
08:20PM 37.9344 -81.3478 87° East 467 537 35,000  Level Indianapolis Center
08:21PM 37.9397 -81.1833 88° East 469 540 35,000  Level Indianapolis Center
08:22PM 37.9456 -81.0197 87° East 467 537 35,000  Level Indianapolis Center
08:23PM 37.9508 -80.8581 88° East 463 533 35,000  Level Indianapolis Center
08:24PM 37.9536 -80.7564 88° East 459 528 35,000  Level Washington Center
08:25PM 37.9611 -80.5778 87° East 459 528 35,000  Level Washington Center
08:26PM 37.9658 -80.4122 88° East 464 534 35,000  Level Washington Center
08:27PM 37.9703 -80.2464 88° East 464 534 35,000  Level Washington Center
08:28PM 37.9767 -80.0808 87° East 464 534 35,000  Level Washington Center
08:29PM 37.9819 -79.9361 87° East 459 528 35,000  Level Washington Center
08:30PM 37.9858 -79.7706 88° East 459 528 35,000  Level Washington Center
08:31PM 37.9914 -79.6047 88° East 464 534 35,000  Level Washington Center
08:32PM 37.9947 -79.4414 88° East 464 534 35,000  Level Washington Center
08:33PM 38.0000 -79.2731 88° East 459 528 35,000  Level Washington Center
08:34PM 38.0033 -79.0942 89° East 459 528 35,000  Level Washington Center
08:35PM 38.0058 -78.9333 89° East 459 528 35,000  Level Washington Center
08:36PM 38.0081 -78.7728 89° East 459 528 35,000  Level Washington Center
08:37PM 38.0100 -78.6147 89° East 454 522 35,000  Level Washington Center
08:38PM 38.0097 -78.4539 90° East 454 522 35,000  Level Washington Center
08:39PM 38.0133 -78.3064 88° East 459 528 35,000  Level Washington Center
08:40PM 38.0147 -78.1458 89° East 459 528 35,000  Level Washington Center
08:41PM 38.0244 -77.9747 86° East 448 516 35,000  Level Washington Center
08:42PM 38.0339 -77.8142 86° East 448 516 35,000 -240 Level Washington Center
08:43PM 38.0431 -77.6536 86° East 453 521 34,600 -840 Descending Washington Center
08:44PM 38.0519 -77.4931 86° East 453 521 33,400 -840 Descending Washington Center
08:45PM 38.0603 -77.3508 86° East 453 521 33,000 -240 Descending Washington Center
08:46PM 38.0689 -77.1794 86° East 448 516 33,000 -720 Level Washington Center
08:47PM 38.0789 -77.0372 85° East 448 516 31,600 -1,020 Descending Washington Center
08:48PM 38.0956 -76.8767 82° East 448 516 31,000 -300 Descending Washington Center
08:49PM 38.1697 -76.7539 52° Northeast 423 487 31,000  Level Washington Center
08:50PM 38.2561 -76.6442 45° Northeast 423 487 31,000  Level Washington Center
08:51PM 38.3425 -76.5394 44° Northeast 423 487 31,000  Level Washington Center
08:52PM 38.4308 -76.4319 44° Northeast 423 487 31,000  Level Washington Center
08:53PM 38.5192 -76.3186 45° Northeast 434 499 31,000 -840 Level Washington Center
08:54PM 38.6075 -76.2108 44° Northeast 434 499 29,400 -1,500 Descending Washington Center
08:55PM 38.6975 -76.1050 43° Northeast 434 499 28,000 -1,260 Descending Washington Center
08:56PM 38.7856 -75.9939 45° Northeast 434 499 27,000 -540 Descending Washington Center
08:57PM 38.8714 -75.8822 45° Northeast 434 499 27,000 -60 Level Washington Center
08:58PM 38.9611 -75.7758 43° Northeast 434 499 26,900 -300 Descending Washington Center
08:59PM 39.0592 -75.6825 36° Northeast 429 494 26,400 -720 Descending Washington Center
09:00PM 39.1550 -75.5917 36° Northeast 429 494 25,500 -1,200 Descending Washington Center
09:01PM 39.2550 -75.4978 36° Northeast 429 494 24,100 -1,920 Descending Washington Center
09:02PM 39.3467 -75.4172 34° Northeast 423 487 21,800 -2,280 Descending Washington Center
09:03PM 39.4342 -75.3417 34° Northeast 403 464 19,600 -1,440 Descending Washington Center
09:04PM 39.5192 -75.2606 36° Northeast 386 444 18,900 -840 Descending Washington Center
09:05PM 39.6003 -75.1850 36° Northeast 375 432 18,000 -840 Descending Washington Center
09:06PM 39.6833 -75.1061 36° Northeast 370 426 17,300 -1,140 Descending Washington Center
09:07PM 39.7747 -75.0300 33° Northeast 360 414 15,800 -1,440 Descending Washington Center
09:08PM 39.8472 -74.9672 34° Northeast 347 399 14,500 -1,200 Descending Washington Center
09:09PM 39.9344 -74.8825 37° Northeast 354 407 13,400 -1,140 Descending Washington Center
09:10PM 39.9964 -74.7900 49° Northeast 354 407 12,300 -1,440 Descending Washington Center
09:11PM 40.0500 -74.7000 52° Northeast 341 392 10,800 -1,200 Descending New York TRACON
09:12PM 40.1167 -74.6167 44° Northeast 330 380 10,000 -420 Descending New York TRACON
09:13PM 40.1833 -74.5167 49° Northeast 338 389 10,000  Level New York TRACON
09:14PM 40.2500 -74.4333 44° Northeast 334 384 10,000  Level New York TRACON
09:15PM 40.3167 -74.3500 44° Northeast 324 373 10,000 -480 Level New York TRACON
09:16PM 40.3667 -74.2833 45° Northeast 275 316 9,100 -1,140 Descending New York TRACON
09:17PM 40.4333 -74.2167 37° Northeast 284 327 7,800 -1,500 Descending New York TRACON
09:18PM 40.5000 -74.1667 30° Northeast 268 308 6,100 -1,680 Descending New York TRACON
09:19PM 40.5500 -74.1000 45° Northeast 259 298 4,500 -1,080 Descending New York TRACON
09:20PM 40.6167 -74.0500 30° Northeast 258 297 4,000 -300 Descending New York TRACON
09:21PM 40.6667 -74.0000 37° Northeast 260 299 4,000  Level New York TRACON
09:22PM 40.7167 -73.9333 45° Northeast 266 306 4,000  Level New York TRACON
09:23PM 40.7500 -73.8500 62° Northeast 266 306 4,000 -720 Level New York TRACON
09:24PM 40.8000 -73.7833 45° Northeast 239 275 2,500 -840 Descending New York TRACON
09:25PM 40.8500 -73.7667 14° North 198 228 2,300 -240 Descending New York TRACON